Time;durP1;ratioP1;P1;durP2;ratioP2;P2;SDS_P1;SDS_P2;PMS_P1;PMS_P2;Temp;Humidity;BMP_temperature;BMP_pressure;BME280_temperature;BME280_humidity;BME280_pressure;Samples;Min_cycle;Max_cycle;Signal;HPM_P1;HPM_P2
2022/09/03 00:00:16;;;;;;;33.17;30.90;;;;;;;;;;16890768;29;20368;-85
2022/09/03 00:08:41;;;;;;;30.20;28.17;;;;;;;;;;16887902;29;20565;-85
2022/09/03 00:17:07;;;;;;;36.13;33.67;;;;;;;;;;16886552;29;20213;-85
2022/09/03 00:25:32;;;;;;;33.23;30.47;;;;;;;;;;16887275;29;20219;-85
2022/09/03 00:33:58;;;;;;;47.13;44.10;;;;;;;;;;16888838;29;20197;-85
2022/09/03 00:42:22;;;;;;;61.43;57.53;;;;;;;;;;16887469;28;20177;-86
2022/09/03 00:50:48;;;;;;;49.67;45.93;;;;;;;;;;16886946;29;20216;-85
2022/09/03 00:59:35;;;;;;;60.60;56.60;;;;;;;;;;16887136;28;20271;-85
2022/09/03 01:08:31;;;;;;;64.33;60.33;;;;;;;;;;16887780;29;20217;-85
2022/09/03 01:16:55;;;;;;;53.70;50.40;;;;;;;;;;16894510;28;20203;-85
2022/09/03 01:25:16;;;;;;;59.00;55.07;;;;;;;;;;16886536;29;20200;-85
2022/09/03 01:33:39;;;;;;;74.47;69.83;;;;;;;;;;16895412;29;20184;-85
2022/09/03 01:42:15;;;;;;;62.23;57.97;;;;;;;;;;16895551;29;20181;-85
2022/09/03 01:50:35;;;;;;;58.37;54.70;;;;;;;;;;16896365;29;20229;-85
2022/09/03 01:59:01;;;;;;;61.63;57.87;;;;;;;;;;16896366;28;20696;-85
2022/09/03 02:07:23;;;;;;;56.43;53.13;;;;;;;;;;16895160;29;20204;-86
2022/09/03 02:15:45;;;;;;;57.83;54.30;;;;;;;;;;16894080;28;20192;-86
2022/09/03 02:24:07;;;;;;;53.43;50.20;;;;;;;;;;16893424;29;20177;-86
2022/09/03 02:32:27;;;;;;;56.77;53.30;;;;;;;;;;16892833;29;20211;-86
2022/09/03 02:40:48;;;;;;;46.80;43.70;;;;;;;;;;16893424;28;20190;-86
2022/09/03 02:49:08;;;;;;;48.00;45.20;;;;;;;;;;16893891;28;20229;-86
2022/09/03 02:57:28;;;;;;;63.27;59.60;;;;;;;;;;16890832;28;20262;-86
2022/09/03 03:05:50;;;;;;;64.90;61.23;;;;;;;;;;16891186;29;20680;-84
2022/09/03 03:14:10;;;;;;;48.13;45.40;;;;;;;;;;16891438;28;20219;-84
2022/09/03 03:22:30;;;;;;;43.83;40.97;;;;;;;;;;16893395;28;20185;-85
2022/09/03 03:30:51;;;;;;;58.37;55.00;;;;;;;;;;16890953;28;20204;-85
2022/09/03 03:39:11;;;;;;;39.87;37.30;;;;;;;;;;16890653;29;20185;-85
2022/09/03 03:47:32;;;;;;;50.93;48.07;;;;;;;;;;16890326;28;20221;-85
2022/09/03 03:55:53;;;;;;;38.00;35.57;;;;;;;;;;16888947;28;20825;-84
2022/09/03 04:04:13;;;;;;;36.90;34.30;;;;;;;;;;16890372;29;20185;-84
2022/09/03 04:12:34;;;;;;;40.70;38.40;;;;;;;;;;16887787;29;20665;-85
2022/09/03 04:20:58;;;;;;;33.80;31.70;;;;;;;;;;16887555;29;20173;-85
2022/09/03 04:29:18;;;;;;;38.00;36.00;;;;;;;;;;16888008;29;20205;-84
2022/09/03 04:37:38;;;;;;;267.17;251.20;;;;;;;;;;16886838;29;20178;-85
2022/09/03 04:45:59;;;;;;;662.57;616.70;;;;;;;;;;16886138;28;20531;-85
2022/09/03 04:54:20;;;;;;;431.17;402.37;;;;;;;;;;16886902;29;20232;-86
2022/09/03 05:02:40;;;;;;;380.70;355.07;;;;;;;;;;16886793;28;20261;-86
2022/09/03 05:11:00;;;;;;;460.42;424.67;;;;;;;;;;16887224;28;20212;-86
2022/09/03 05:19:21;;;;;;;507.80;465.42;;;;;;;;;;16886875;29;20260;-87
2022/09/03 05:27:41;;;;;;;682.90;622.83;;;;;;;;;;16885491;29;20256;-84
2022/09/03 05:36:03;;;;;;;753.30;684.30;;;;;;;;;;16885275;29;20426;-84
2022/09/03 05:44:23;;;;;;;1069.22;969.50;;;;;;;;;;16883866;28;20177;-84
2022/09/03 05:52:44;;;;;;;890.95;806.33;;;;;;;;;;16884587;29;20580;-85
2022/09/03 06:01:13;;;;;;;797.15;721.88;;;;;;;;;;16885390;28;20225;-85
2022/09/03 06:09:33;;;;;;;828.58;749.22;;;;;;;;;;16883443;28;20197;-85
2022/09/03 06:17:53;;;;;;;1034.47;935.70;;;;;;;;;;16890968;28;20181;-84
2022/09/03 06:26:14;;;;;;;983.58;890.75;;;;;;;;;;16892972;28;20201;-85
2022/09/03 06:34:34;;;;;;;881.17;799.90;;;;;;;;;;16892844;29;20190;-84
2022/09/03 06:42:58;;;;;;;920.85;837.97;;;;;;;;;;16892495;28;20209;-85
2022/09/03 06:51:19;;;;;;;697.20;635.90;;;;;;;;;;16892929;29;20228;-84
2022/09/03 06:59:40;;;;;;;840.00;766.58;;;;;;;;;;16892150;29;20691;-84
2022/09/03 07:08:00;;;;;;;860.13;785.28;;;;;;;;;;16890233;29;20201;-84
2022/09/03 07:16:22;;;;;;;741.67;677.13;;;;;;;;;;16892500;29;20189;-84
2022/09/03 07:24:45;;;;;;;759.47;694.08;;;;;;;;;;16892844;29;20191;-85
2022/09/03 07:33:06;;;;;;;872.53;797.97;;;;;;;;;;16891029;29;20526;-85
2022/09/03 07:41:26;;;;;;;785.80;719.33;;;;;;;;;;16888924;28;20248;-85
2022/09/03 07:49:46;;;;;;;832.28;762.22;;;;;;;;;;16889252;29;20680;-85
2022/09/03 07:58:07;;;;;;;818.30;749.75;;;;;;;;;;16889985;28;20233;-83
2022/09/03 08:06:28;;;;;;;865.85;794.28;;;;;;;;;;16890436;29;20181;-83
2022/09/03 08:14:48;;;;;;;998.15;917.53;;;;;;;;;;16888750;29;20186;-83
2022/09/03 08:23:08;;;;;;;952.85;875.78;;;;;;;;;;16888417;28;20209;-83
2022/09/03 08:31:29;;;;;;;932.40;857.10;;;;;;;;;;16886035;29;20185;-82
2022/09/03 08:39:50;;;;;;;1069.28;985.83;;;;;;;;;;16886596;28;20216;-82
2022/09/03 08:48:15;;;;;;;1124.82;999.90;;;;;;;;;;16886406;28;20308;-82
2022/09/03 08:56:37;;;;;;;1103.90;999.80;;;;;;;;;;16886447;28;20329;-86
2022/09/03 09:05:02;;;;;;;1068.40;972.57;;;;;;;;;;16885566;29;20180;-86
2022/09/03 09:13:55;;;;;;;1062.13;966.20;;;;;;;;;;16886336;29;20181;-87
2022/09/03 09:22:27;;;;;;;996.88;922.55;;;;;;;;;;16894701;28;20224;-85
2022/09/03 09:30:48;;;;;;;1001.17;927.13;;;;;;;;;;16886582;29;20192;-85
2022/09/03 09:39:10;;;;;;;994.80;921.00;;;;;;;;;;16884060;29;20288;-85
2022/09/03 09:47:35;;;;;;;942.63;872.70;;;;;;;;;;16886175;28;20207;-85
2022/09/03 09:55:57;;;;;;;904.45;838.00;;;;;;;;;;16894337;28;20561;-85
2022/09/03 10:04:28;;;;;;;916.27;849.40;;;;;;;;;;16895356;28;20181;-85
2022/09/03 10:13:08;;;;;;;902.70;836.20;;;;;;;;;;16892984;28;20180;-86
2022/09/03 10:21:35;;;;;;;933.63;864.83;;;;;;;;;;16894417;29;20626;-86
2022/09/03 10:29:58;;;;;;;974.03;903.00;;;;;;;;;;16893464;28;20766;-85
2022/09/03 10:38:38;;;;;;;976.53;905.20;;;;;;;;;;16892447;28;20212;-86
2022/09/03 10:47:18;;;;;;;1000.47;927.97;;;;;;;;;;16893015;29;20220;-85
2022/09/03 10:55:38;;;;;;;1004.87;931.97;;;;;;;;;;16894229;28;20245;-84
2022/09/03 11:04:16;;;;;;;977.23;906.20;;;;;;;;;;16890246;29;20232;-85
2022/09/03 11:12:42;;;;;;;971.20;901.00;;;;;;;;;;16892475;29;20186;-85
2022/09/03 11:21:04;;;;;;;1027.70;952.90;;;;;;;;;;16891958;28;20251;-85
2022/09/03 11:29:47;;;;;;;989.40;917.43;;;;;;;;;;16892109;29;20521;-85
2022/09/03 11:38:20;;;;;;;1039.23;963.23;;;;;;;;;;16889965;29;20573;-85
2022/09/03 11:46:40;;;;;;;1046.97;970.80;;;;;;;;;;16889232;29;20216;-85
2022/09/03 11:55:00;;;;;;;1082.63;997.60;;;;;;;;;;16888926;28;20276;-86
2022/09/03 12:03:27;;;;;;;1045.73;959.30;;;;;;;;;;16889468;29;20461;-86
2022/09/03 12:12:06;;;;;;;470.42;436.27;;;;;;;;;;16888081;28;20185;-87
2022/09/03 12:20:27;;;;;;;324.52;304.02;;;;;;;;;;16888925;29;20205;-86
2022/09/03 12:28:49;;;;;;;313.67;293.85;;;;;;;;;;16886535;28;20177;-87
2022/09/03 12:37:20;;;;;;;293.52;275.52;;;;;;;;;;16886523;29;20308;-86
2022/09/03 12:45:46;;;;;;;244.95;230.60;;;;;;;;;;16884367;29;20177;-86
2022/09/03 12:54:14;;;;;;;255.07;239.68;;;;;;;;;;16883918;29;20267;-86
2022/09/03 13:02:41;;;;;;;221.43;208.38;;;;;;;;;;16880809;28;20950;-86
2022/09/03 13:11:03;;;;;;;225.13;212.05;;;;;;;;;;16880650;29;20304;-86
2022/09/03 13:19:24;;;;;;;237.60;223.45;;;;;;;;;;16886279;28;20205;-86
2022/09/03 13:27:58;;;;;;;254.82;239.63;;;;;;;;;;16884738;29;20209;-87
2022/09/03 13:36:21;;;;;;;266.48;250.45;;;;;;;;;;16884286;29;20966;-87
2022/09/03 13:44:45;;;;;;;246.18;231.48;;;;;;;;;;16884790;29;20184;-87
2022/09/03 13:53:06;;;;;;;270.55;254.30;;;;;;;;;;16883007;29;20204;-87
2022/09/03 14:01:38;;;;;;;239.27;224.82;;;;;;;;;;16883887;28;20233;-87
2022/09/03 14:10:19;;;;;;;236.02;221.77;;;;;;;;;;16884085;29;20614;-85
2022/09/03 14:18:54;;;;;;;243.10;228.65;;;;;;;;;;16878849;29;20636;-86
2022/09/03 14:27:22;;;;;;;231.48;217.52;;;;;;;;;;16879589;29;20177;-86
2022/09/03 14:36:01;;;;;;;262.73;247.07;;;;;;;;;;16885498;29;20205;-87
2022/09/03 14:44:33;;;;;;;266.13;250.25;;;;;;;;;;16893584;28;20688;-86
2022/09/03 14:53:10;;;;;;;282.85;265.65;;;;;;;;;;16892052;29;20665;-84
2022/09/03 15:01:32;;;;;;;244.10;229.73;;;;;;;;;;16893566;28;20235;-86
2022/09/03 15:10:12;;;;;;;206.25;194.35;;;;;;;;;;16891973;28;20701;-86
2022/09/03 15:19:09;;;;;;;225.00;211.70;;;;;;;;;;16891573;29;20243;-86
2022/09/03 15:27:48;;;;;;;233.10;219.57;;;;;;;;;;16910748;28;20596;-87
2022/09/03 15:36:34;;;;;;;232.25;218.65;;;;;;;;;;16887847;29;20209;-87
2022/09/03 15:44:59;;;;;;;198.13;186.52;;;;;;;;;;16889132;29;20193;-87
2022/09/03 15:53:29;;;;;;;214.48;202.18;;;;;;;;;;16890028;28;20552;-86
2022/09/03 16:02:17;;;;;;;221.73;208.85;;;;;;;;;;16890163;28;20661;-87
2022/09/03 16:10:45;;;;;;;176.75;166.93;;;;;;;;;;16888448;29;20328;-88
2022/09/03 16:19:11;;;;;;;165.40;156.32;;;;;;;;;;16889176;28;20272;-87
2022/09/03 16:27:37;;;;;;;160.13;151.53;;;;;;;;;;16888816;29;20644;-91
2022/09/03 16:36:17;;;;;;;124.93;118.45;;;;;;;;;;16881118;28;20267;-88
2022/09/03 16:44:57;;;;;;;123.53;117.05;;;;;;;;;;16881766;29;20545;-86
2022/09/03 16:53:27;;;;;;;119.10;112.93;;;;;;;;;;16881017;29;20197;-86
2022/09/03 17:02:00;;;;;;;93.63;88.93;;;;;;;;;;16884733;28;20229;-87
2022/09/03 17:10:35;;;;;;;109.27;103.63;;;;;;;;;;16887385;29;20212;-86
2022/09/03 17:18:55;;;;;;;102.45;97.00;;;;;;;;;;16886102;29;20292;-86
2022/09/03 17:27:34;;;;;;;84.23;79.93;;;;;;;;;;16886023;29;20518;-86
2022/09/03 17:35:57;;;;;;;93.67;88.67;;;;;;;;;;16879699;29;20201;-87
2022/09/03 17:44:23;;;;;;;116.43;110.57;;;;;;;;;;16879250;28;20181;-87
2022/09/03 17:52:47;;;;;;;116.80;110.60;;;;;;;;;;16881853;29;20657;-87
2022/09/03 18:01:14;;;;;;;145.10;137.40;;;;;;;;;;16883280;28;20229;-87
2022/09/03 18:10:07;;;;;;;145.67;137.83;;;;;;;;;;16888626;29;20191;-87
2022/09/03 18:18:28;;;;;;;147.30;139.67;;;;;;;;;;16903979;28;20227;-88
2022/09/03 20:12:12;;;;;;;244.00;230.77;;;;;;;;;;16882764;29;20204;-86
2022/09/03 20:20:43;;;;;;;279.83;264.60;;;;;;;;;;16885312;29;20201;-87
2022/09/03 20:29:09;;;;;;;265.60;251.20;;;;;;;;;;16887051;29;20193;-86
2022/09/03 20:37:34;;;;;;;296.63;280.03;;;;;;;;;;16887491;28;20224;-87
2022/09/03 20:46:11;;;;;;;280.30;265.03;;;;;;;;;;16887024;28;20538;-87
2022/09/03 20:54:36;;;;;;;333.97;314.60;;;;;;;;;;16886903;28;20183;-87
2022/09/03 21:03:02;;;;;;;402.70;377.80;;;;;;;;;;16886518;29;20529;-87
2022/09/03 21:11:41;;;;;;;408.97;383.47;;;;;;;;;;16886529;29;20224;-87
2022/09/03 21:20:08;;;;;;;314.43;296.70;;;;;;;;;;16884797;29;20209;-86
2022/09/03 21:28:55;;;;;;;467.10;437.77;;;;;;;;;;16885652;29;20212;-86
2022/09/03 21:37:17;;;;;;;513.20;479.93;;;;;;;;;;16891637;28;20284;-86
2022/09/03 21:45:48;;;;;;;585.80;547.00;;;;;;;;;;16888309;29;20318;-86
2022/09/03 21:54:15;;;;;;;575.43;537.27;;;;;;;;;;16895684;29;20201;-86
2022/09/03 22:02:35;;;;;;;557.53;520.73;;;;;;;;;;16896145;28;20233;-87
2022/09/03 22:10:59;;;;;;;572.53;535.10;;;;;;;;;;16894921;28;20622;-86
2022/09/03 22:19:19;;;;;;;559.10;522.23;;;;;;;;;;16894795;28;20299;-86
2022/09/03 22:27:45;;;;;;;580.63;541.70;;;;;;;;;;16895212;28;20185;-86
2022/09/03 22:36:26;;;;;;;564.47;526.90;;;;;;;;;;16893791;29;20209;-86
2022/09/03 22:44:49;;;;;;;597.07;557.10;;;;;;;;;;16893286;29;20205;-86
2022/09/03 22:53:16;;;;;;;551.03;514.03;;;;;;;;;;16892838;29;20213;-86
2022/09/03 23:01:48;;;;;;;584.57;544.77;;;;;;;;;;16891927;28;20229;-86
2022/09/03 23:10:10;;;;;;;589.80;549.17;;;;;;;;;;16892779;28;20186;-86
2022/09/03 23:18:32;;;;;;;584.87;544.17;;;;;;;;;;16890737;28;20233;-87
2022/09/03 23:26:52;;;;;;;608.50;565.67;;;;;;;;;;16892199;28;20595;-86
2022/09/03 23:35:16;;;;;;;609.97;567.97;;;;;;;;;;16889900;29;20196;-86
2022/09/03 23:43:43;;;;;;;579.83;538.33;;;;;;;;;;16890342;28;20209;-86
2022/09/03 23:52:12;;;;;;;576.63;535.90;;;;;;;;;;16888930;29;20251;-86
